createdAt,value
2023-04-22T00:00:14.771Z,48.84
2023-04-22T00:02:41.731Z,48.73
2023-04-22T00:05:09.198Z,49.11
2023-04-22T00:07:36.152Z,48.74
2023-04-22T00:10:02.984Z,49.01
2023-04-22T00:12:29.822Z,48.71
2023-04-22T00:14:56.768Z,48.87
2023-04-22T00:17:23.678Z,48.86
2023-04-22T00:19:50.482Z,49.03
2023-04-22T00:22:17.295Z,49.16
2023-04-22T00:24:44.089Z,49.11
2023-04-22T00:27:11.066Z,49.14
2023-04-22T00:29:38.336Z,49.09
2023-04-22T00:32:05.443Z,48.92
2023-04-22T00:34:32.250Z,49.00
2023-04-22T00:36:59.020Z,49.40
2023-04-22T00:39:25.766Z,49.45
2023-04-22T00:41:53.729Z,49.17
2023-04-22T00:44:23.068Z,49.29
2023-04-22T00:46:50.025Z,49.50
2023-04-22T00:49:17.014Z,49.61
2023-04-22T00:51:44.197Z,49.82
2023-04-22T00:54:11.129Z,49.48
2023-04-22T00:56:38.482Z,49.64
2023-04-22T00:59:05.300Z,49.57
2023-04-22T01:01:32.374Z,49.93
2023-04-22T01:04:01.225Z,49.89
2023-04-22T01:06:30.292Z,49.78
2023-04-22T01:08:58.925Z,49.87
2023-04-22T01:11:25.695Z,50.19
2023-04-22T01:13:52.530Z,50.30
2023-04-22T01:16:19.507Z,50.38
2023-04-22T01:18:46.919Z,50.04
2023-04-22T01:21:13.786Z,50.65
2023-04-22T01:23:40.746Z,51.08
2023-04-22T01:26:07.612Z,51.30
2023-04-22T01:28:34.491Z,51.16
2023-04-22T01:31:01.392Z,51.40
2023-04-22T01:33:29.843Z,51.62
2023-04-22T01:35:56.720Z,51.32
2023-04-22T01:38:23.557Z,51.19
2023-04-22T01:40:50.713Z,51.57
2023-04-22T01:43:17.506Z,51.62
2023-04-22T01:45:44.586Z,52.02
2023-04-22T01:48:11.542Z,51.89
2023-04-22T01:50:38.439Z,51.74
2023-04-22T01:53:07.538Z,51.76
2023-04-22T01:55:36.366Z,51.56
2023-04-22T01:58:04.500Z,51.32
2023-04-22T02:00:31.787Z,51.38
2023-04-22T02:02:58.720Z,51.13
2023-04-22T02:05:26.508Z,51.07
2023-04-22T02:07:53.981Z,51.26
2023-04-22T02:10:21.516Z,51.20
2023-04-22T02:12:48.351Z,51.39
2023-04-22T02:15:15.447Z,51.32
2023-04-22T02:17:43.643Z,51.77
2023-04-22T02:20:12.990Z,51.82
2023-04-22T02:22:41.699Z,51.63
2023-04-22T02:25:09.557Z,51.62
2023-04-22T02:27:36.595Z,51.61
2023-04-22T02:30:04.176Z,52.13
2023-04-22T02:32:31.802Z,51.97
2023-04-22T02:34:59.809Z,52.14
2023-04-22T02:37:26.644Z,52.25
2023-04-22T02:39:54.160Z,52.31
2023-04-22T02:42:20.950Z,51.98
2023-04-22T02:44:47.762Z,52.12
2023-04-22T02:47:14.606Z,52.13
2023-04-22T02:49:41.611Z,51.95
2023-04-22T02:52:09.570Z,51.95
2023-04-22T02:54:36.478Z,52.08
2023-04-22T02:57:03.402Z,52.21
2023-04-22T02:59:31.357Z,52.37
2023-04-22T03:01:58.728Z,51.99
2023-04-22T03:04:55.276Z,52.03
2023-04-22T03:07:22.214Z,52.32
2023-04-22T03:09:48.981Z,52.43
2023-04-22T03:12:15.784Z,52.25
2023-04-22T03:14:43.077Z,52.36
2023-04-22T03:17:09.936Z,52.49
2023-04-22T03:19:37.220Z,52.85
2023-04-22T03:22:04.781Z,52.71
2023-04-22T03:24:31.629Z,52.65
2023-04-22T03:27:04.183Z,53.02
2023-04-22T03:29:31.036Z,52.80
2023-04-22T03:31:58.018Z,52.96
2023-04-22T03:34:24.929Z,53.18
2023-04-22T03:36:51.696Z,53.40
2023-04-22T03:39:20.151Z,53.56
2023-04-22T03:41:47.253Z,53.74
2023-04-22T03:44:14.049Z,53.55
2023-04-22T03:46:41.060Z,53.92
2023-04-22T03:49:15.870Z,53.61
2023-04-22T03:51:43.972Z,54.19
2023-04-22T03:54:15.309Z,54.22
2023-04-22T03:56:48.127Z,54.32
2023-04-22T03:59:15.561Z,54.04
2023-04-22T04:01:43.093Z,54.44
2023-04-22T04:04:10.863Z,54.24
2023-04-22T04:06:59.710Z,54.26
2023-04-22T04:09:27.612Z,54.49
2023-04-22T04:11:54.436Z,54.80
2023-04-22T04:14:21.821Z,54.78
2023-04-22T04:16:51.572Z,54.73
2023-04-22T04:19:26.876Z,54.73
2023-04-22T04:21:54.461Z,54.47
2023-04-22T04:24:22.686Z,54.13
2023-04-22T04:26:51.508Z,54.19
2023-04-22T04:29:23.979Z,54.16
2023-04-22T04:32:11.900Z,54.51
2023-04-22T04:34:38.858Z,54.44
2023-04-22T04:37:07.442Z,54.96
2023-04-22T04:40:01.948Z,54.74
2023-04-22T04:42:42.638Z,55.17
2023-04-22T04:48:42.514Z,54.35
2023-04-22T04:51:10.275Z,54.35
2023-04-22T04:53:42.935Z,54.75
2023-04-22T04:56:09.826Z,54.63
2023-04-22T04:58:36.921Z,54.54
2023-04-22T05:01:13.870Z,54.79
2023-04-22T05:03:42.968Z,54.88
2023-04-22T05:06:10.778Z,55.00
2023-04-22T05:08:40.042Z,55.15
2023-04-22T05:11:11.111Z,55.07
2023-04-22T05:13:38.330Z,55.03
2023-04-22T05:16:07.512Z,54.62
2023-04-22T05:18:34.426Z,54.92
2023-04-22T05:21:05.772Z,54.75
2023-04-22T05:23:34.007Z,54.71
2023-04-22T05:26:01.811Z,54.91
2023-04-22T05:28:30.189Z,55.16
2023-04-22T05:30:57.569Z,55.30
2023-04-22T05:33:27.284Z,55.02
2023-04-22T05:35:54.330Z,55.24
2023-04-22T05:38:21.089Z,55.21
2023-04-22T05:40:48.544Z,54.88
2023-04-22T05:43:16.396Z,54.83
2023-04-22T05:45:48.551Z,54.91
2023-04-22T05:48:16.512Z,55.00
2023-04-22T05:50:54.495Z,54.91
2023-04-22T05:53:21.441Z,54.82
2023-04-22T05:55:48.286Z,55.19
2023-04-22T05:58:15.056Z,55.02
2023-04-22T06:00:51.824Z,55.08
2023-04-22T06:03:41.769Z,55.24
2023-04-22T06:06:08.939Z,55.28
2023-04-22T06:08:35.803Z,55.23
2023-04-22T06:11:02.573Z,55.21
2023-04-22T06:13:32.788Z,55.74
2023-04-22T06:15:59.804Z,55.30
2023-04-22T06:18:28.197Z,55.84
2023-04-22T06:20:56.022Z,55.79
2023-04-22T06:23:22.807Z,55.54
2023-04-22T06:25:49.647Z,56.11
2023-04-22T06:28:17.127Z,56.05
2023-04-22T06:30:45.273Z,55.94
2023-04-22T06:33:12.422Z,55.72
2023-04-22T06:35:39.354Z,55.71
2023-04-22T06:38:06.474Z,55.51
2023-04-22T06:40:41.133Z,55.46
2023-04-22T06:43:16.674Z,55.74
2023-04-22T06:46:08.604Z,55.25
2023-04-22T06:48:54.317Z,55.45
2023-04-22T06:51:33.247Z,55.35
2023-04-22T06:54:01.282Z,54.83
2023-04-22T06:56:28.101Z,54.72
2023-04-22T06:58:55.451Z,55.00
2023-04-22T07:01:22.428Z,54.58
2023-04-22T07:03:49.410Z,54.38
2023-04-22T07:06:16.233Z,54.21
2023-04-22T07:08:43.483Z,54.13
2023-04-22T07:11:12.539Z,53.98
2023-04-22T07:13:53.054Z,54.06
2023-04-22T07:16:19.909Z,53.73
2023-04-22T07:18:46.707Z,53.83
2023-04-22T07:21:13.806Z,53.85
2023-04-22T07:23:40.609Z,53.62
2023-04-22T07:26:07.389Z,53.84
2023-04-22T07:28:34.194Z,53.73
2023-04-22T07:31:00.959Z,53.14
2023-04-22T07:33:27.755Z,53.49
2023-04-22T07:35:54.589Z,53.60
2023-04-22T07:38:21.428Z,53.28
2023-04-22T07:40:48.263Z,53.26
2023-04-22T07:43:15.034Z,53.01
2023-04-22T07:45:41.912Z,52.93
2023-04-22T07:48:08.779Z,53.06
2023-04-22T07:50:38.147Z,53.00
2023-04-22T07:53:06.244Z,53.28
2023-04-22T07:55:33.229Z,53.03
2023-04-22T07:58:06.760Z,52.92
2023-04-22T08:00:35.246Z,52.95
2023-04-22T08:03:03.234Z,52.75
2023-04-22T08:05:30.239Z,52.89
2023-04-22T08:07:57.097Z,52.65
2023-04-22T08:10:24.050Z,52.62
2023-04-22T08:12:50.872Z,52.50
2023-04-22T08:15:17.784Z,52.64
2023-04-22T08:17:44.895Z,52.65
2023-04-22T08:20:12.062Z,52.65
2023-04-22T08:22:39.090Z,52.27
2023-04-22T08:25:06.994Z,51.79
2023-04-22T08:27:37.184Z,51.71
2023-04-22T08:30:05.568Z,51.27
2023-04-22T08:32:32.502Z,51.41
2023-04-22T08:35:04.419Z,51.70
2023-04-22T08:37:35.057Z,51.90
2023-04-22T08:40:01.992Z,52.03
2023-04-22T08:42:30.125Z,52.09
2023-04-22T08:44:57.240Z,52.05
2023-04-22T08:47:25.411Z,51.57
2023-04-22T08:49:55.188Z,51.45
2023-04-22T08:52:22.310Z,51.59
2023-04-22T08:54:49.131Z,51.64
2023-04-22T08:57:16.684Z,51.99
2023-04-22T08:59:43.491Z,51.83
2023-04-22T09:02:20.032Z,51.35
2023-04-22T09:04:47.981Z,51.11
2023-04-22T09:07:24.203Z,50.74
2023-04-22T09:09:51.351Z,51.37
2023-04-22T09:12:19.349Z,51.23
2023-04-22T09:14:46.496Z,51.13
2023-04-22T09:17:30.846Z,50.88
2023-04-22T09:19:59.653Z,50.62
2023-04-22T09:22:37.244Z,50.00
2023-04-22T09:25:05.106Z,50.07
2023-04-22T09:27:32.079Z,50.04
2023-04-22T09:29:58.871Z,49.99
2023-04-22T09:32:28.626Z,49.96
2023-04-22T09:35:00.716Z,50.14
2023-04-22T09:37:36.066Z,49.45
2023-04-22T09:40:09.893Z,49.23
2023-04-22T09:42:48.683Z,49.05
2023-04-22T09:45:26.202Z,48.96
2023-04-22T09:47:54.885Z,48.63
2023-04-22T09:50:22.011Z,48.53
2023-04-22T09:53:02.348Z,48.38
2023-04-22T09:55:30.740Z,47.86
2023-04-22T09:57:58.247Z,48.21
2023-04-22T10:00:30.110Z,48.18
2023-04-22T10:02:56.956Z,47.64
2023-04-22T10:05:25.386Z,47.92
2023-04-22T10:07:52.392Z,47.47
2023-04-22T10:10:19.200Z,47.81
2023-04-22T10:12:47.526Z,47.62
2023-04-22T10:15:14.302Z,47.66
2023-04-22T10:17:41.593Z,47.71
2023-04-22T10:20:13.920Z,47.37
2023-04-22T10:22:43.122Z,47.22
2023-04-22T10:25:14.619Z,47.12
2023-04-22T10:27:41.508Z,47.34
2023-04-22T10:30:10.911Z,47.20
2023-04-22T10:32:37.801Z,47.54
2023-04-22T10:35:09.881Z,47.00
2023-04-22T10:37:36.751Z,46.25
2023-04-22T10:40:09.512Z,46.30
2023-04-22T10:42:37.314Z,45.40
2023-04-22T10:45:05.030Z,45.28
2023-04-22T10:47:33.730Z,45.62
2023-04-22T10:50:28.733Z,45.74
2023-04-22T10:53:00.298Z,45.66
2023-04-22T10:55:53.294Z,45.20
2023-04-22T10:58:21.869Z,44.30
2023-04-22T11:00:54.492Z,44.05
2023-04-22T11:03:27.201Z,44.39
2023-04-22T11:06:15.213Z,44.25
2023-04-22T11:08:45.819Z,44.50
2023-04-22T11:11:14.376Z,43.67
2023-04-22T11:13:45.753Z,42.92
2023-04-22T11:16:12.541Z,42.78
2023-04-22T11:18:39.409Z,42.48
2023-04-22T11:21:08.612Z,41.77
2023-04-22T11:23:36.558Z,41.42
2023-04-22T11:26:07.309Z,41.19
2023-04-22T11:28:34.100Z,40.93
2023-04-22T11:31:10.184Z,40.28
2023-04-22T11:33:39.404Z,40.67
2023-04-22T11:36:10.928Z,40.58
2023-04-22T11:38:37.870Z,40.15
2023-04-22T11:41:05.342Z,40.37
2023-04-22T11:43:32.255Z,39.96
2023-04-22T11:45:59.228Z,40.12
2023-04-22T11:48:26.146Z,40.23
2023-04-22T11:51:11.852Z,39.77
2023-04-22T11:53:40.293Z,39.90
2023-04-22T11:56:07.249Z,40.24
2023-04-22T11:58:34.067Z,40.11
2023-04-22T12:01:00.934Z,40.09
2023-04-22T12:03:29.414Z,39.67
2023-04-22T12:06:01.941Z,39.76
2023-04-22T12:08:44.580Z,39.23
2023-04-22T12:11:12.281Z,39.60
2023-04-22T12:13:39.117Z,39.49
2023-04-22T12:16:10.266Z,39.18
2023-04-22T12:18:54.225Z,38.68
2023-04-22T12:21:23.976Z,38.50
2023-04-22T12:23:54.145Z,38.67
2023-04-22T12:26:25.326Z,38.80
2023-04-22T12:28:53.941Z,38.01
2023-04-22T12:31:21.556Z,37.57
2023-04-22T12:33:48.606Z,37.65
2023-04-22T12:36:15.917Z,37.35
2023-04-22T12:38:42.707Z,37.68
2023-04-22T12:41:09.610Z,37.38
2023-04-22T12:43:37.135Z,37.75
2023-04-22T12:46:04.962Z,37.18
2023-04-22T12:48:31.892Z,37.18
2023-04-22T12:50:59.246Z,36.94
2023-04-22T12:53:27.642Z,36.88
2023-04-22T12:55:55.032Z,36.61
2023-04-22T12:58:21.857Z,36.15
2023-04-22T13:00:48.686Z,35.72
2023-04-22T13:03:15.603Z,35.90
2023-04-22T13:05:42.749Z,35.45
2023-04-22T13:08:09.644Z,35.54
2023-04-22T13:10:36.522Z,35.68
2023-04-22T13:15:34.877Z,35.25
2023-04-22T13:18:02.078Z,35.20
2023-04-22T13:20:29.576Z,35.15
2023-04-22T13:22:56.529Z,35.41
2023-04-22T13:25:23.324Z,35.22
2023-04-22T13:27:50.184Z,35.15
2023-04-22T13:30:16.985Z,34.59
2023-04-22T13:32:46.307Z,34.57
2023-04-22T13:35:13.188Z,34.48
2023-04-22T13:37:39.998Z,34.04
2023-04-22T13:40:08.655Z,33.30
2023-04-22T14:51:29.806Z,30.59
2023-04-22T14:53:57.597Z,30.09
2023-04-22T14:56:24.794Z,29.69
2023-04-22T14:58:56.228Z,29.48
2023-04-22T15:01:23.203Z,29.64
2023-04-22T15:03:51.744Z,29.36
2023-04-22T15:06:19.084Z,29.36
2023-04-22T15:08:46.239Z,29.28
2023-04-22T15:11:13.198Z,29.26
2023-04-22T15:13:40.038Z,29.26
2023-04-22T15:16:07.015Z,28.73
2023-04-22T15:18:33.858Z,29.25
2023-04-22T15:21:00.864Z,28.95
2023-04-22T15:23:27.684Z,28.44
2023-04-22T15:25:54.662Z,28.32
2023-04-22T15:28:22.201Z,27.36
2023-04-22T15:30:50.408Z,27.60
2023-04-22T15:33:17.216Z,27.30
2023-04-22T15:35:45.737Z,27.45
2023-04-22T15:38:12.676Z,26.86
2023-04-22T15:40:39.605Z,26.63
2023-04-22T15:43:06.423Z,26.38
2023-04-22T15:45:34.406Z,25.89
2023-04-22T15:48:01.606Z,25.55
2023-04-22T15:50:28.723Z,25.33
2023-04-22T15:52:55.541Z,24.89
2023-04-22T15:55:22.664Z,24.96
2023-04-22T15:57:49.547Z,25.15
2023-04-22T16:00:16.586Z,24.63
2023-04-22T16:02:44.508Z,24.63
2023-04-22T16:05:12.170Z,24.60
2023-04-22T16:07:39.351Z,24.64
2023-04-22T16:10:07.073Z,24.29
2023-04-22T16:12:34.554Z,24.55
2023-04-22T16:15:02.223Z,24.61
2023-04-22T16:17:29.169Z,24.12
2023-04-22T16:19:56.164Z,24.21
2023-04-22T16:22:22.974Z,24.17
2023-04-22T16:24:49.779Z,23.60
2023-04-22T16:27:18.558Z,23.81
2023-04-22T16:29:46.100Z,23.21
2023-04-22T16:32:12.988Z,23.12
2023-04-22T16:34:39.918Z,23.23
2023-04-22T16:37:06.778Z,22.73
2023-04-22T16:39:33.921Z,22.85
2023-04-22T16:42:02.493Z,22.54
2023-04-22T16:44:29.342Z,22.69
2023-04-22T16:46:56.138Z,22.77
2023-04-22T16:49:22.936Z,22.79
2023-04-22T16:51:49.767Z,23.13
2023-04-22T16:54:16.631Z,23.06
2023-04-22T16:56:43.506Z,23.58
2023-04-22T16:59:10.343Z,24.33
2023-04-22T17:01:37.365Z,24.81
2023-04-22T17:04:04.364Z,25.77
2023-04-22T17:06:31.430Z,26.10
2023-04-22T17:08:58.384Z,26.44
2023-04-22T17:11:25.472Z,26.95
2023-04-22T17:13:52.279Z,27.25
2023-04-22T17:16:19.153Z,27.47
2023-04-22T17:18:47.155Z,27.97
2023-04-22T17:21:14.225Z,28.80
2023-04-22T17:23:41.052Z,29.39
2023-04-22T17:26:08.297Z,29.68
2023-04-22T17:28:35.056Z,29.79
2023-04-22T17:31:02.684Z,29.98
2023-04-22T17:33:30.332Z,30.44
2023-04-22T17:35:57.163Z,31.17
2023-04-22T17:38:24.030Z,31.67
2023-04-22T17:40:50.858Z,32.00
2023-04-22T17:43:18.677Z,32.11
2023-04-22T17:45:45.559Z,32.44
2023-04-22T17:48:12.387Z,33.04
2023-04-22T17:50:39.202Z,32.84
2023-04-22T17:53:06.103Z,33.24
2023-04-22T17:55:35.421Z,33.53
2023-04-22T17:58:03.226Z,33.83
2023-04-22T18:00:31.245Z,33.90
2023-04-22T18:02:58.362Z,34.28
2023-04-22T18:05:27.252Z,34.95
2023-04-22T18:08:02.753Z,35.11
2023-04-22T18:10:30.632Z,35.32
2023-04-22T18:12:57.484Z,35.68
2023-04-22T18:15:24.583Z,35.97
2023-04-22T18:17:51.670Z,36.28
2023-04-22T18:20:19.948Z,36.22
2023-04-22T18:22:48.857Z,36.84
2023-04-22T18:25:16.206Z,37.01
2023-04-22T18:27:43.171Z,37.34
2023-04-22T18:30:10.272Z,37.21
2023-04-22T18:32:37.757Z,37.77
2023-04-22T18:35:05.081Z,37.47
2023-04-22T18:37:34.895Z,37.91
2023-04-22T18:40:02.772Z,37.98
2023-04-22T18:42:30.082Z,38.07
2023-04-22T18:44:56.945Z,38.29
2023-04-22T18:47:24.750Z,38.49
2023-04-22T18:49:51.628Z,38.30
2023-04-22T18:52:18.616Z,38.92
2023-04-22T18:54:45.542Z,38.95
2023-04-22T18:57:12.541Z,39.04
2023-04-22T18:59:39.865Z,39.22
2023-04-22T19:02:06.739Z,39.09
2023-04-22T19:04:33.748Z,39.34
2023-04-22T19:07:01.111Z,39.35
2023-04-22T19:09:29.333Z,39.54
2023-04-22T19:11:56.175Z,39.92
2023-04-22T19:14:23.178Z,40.13
2023-04-22T19:16:50.126Z,40.13
2023-04-22T19:19:16.887Z,40.17
2023-04-22T19:21:43.908Z,40.29
2023-04-22T19:24:10.951Z,40.45
2023-04-22T19:26:37.952Z,40.56
2023-04-22T19:29:04.781Z,40.60
2023-04-22T19:31:31.702Z,40.88
2023-04-22T19:33:58.640Z,40.60
2023-04-22T19:36:25.835Z,41.02
2023-04-22T19:38:52.618Z,41.23
2023-04-22T19:41:19.439Z,41.07
2023-04-22T19:43:46.238Z,41.54
2023-04-22T19:46:13.050Z,41.29
2023-04-22T19:48:40.207Z,41.43
2023-04-22T19:51:07.161Z,41.44
2023-04-22T19:53:34.330Z,41.26
2023-04-22T19:56:02.507Z,41.49
2023-04-22T19:58:29.551Z,41.86
2023-04-22T20:00:56.648Z,41.82
2023-04-22T20:03:24.003Z,42.21
2023-04-22T20:05:51.045Z,42.10
2023-04-22T20:08:19.769Z,41.82
2023-04-22T20:10:49.723Z,41.84
2023-04-22T20:13:17.597Z,41.96
2023-04-22T20:15:44.715Z,41.90
2023-04-22T20:18:12.224Z,42.08
2023-04-22T20:20:40.961Z,42.49
2023-04-22T20:23:10.789Z,42.29
2023-04-22T20:25:47.268Z,42.26
2023-04-22T20:28:14.404Z,42.49
2023-04-22T20:30:41.457Z,42.29
2023-04-22T20:33:10.895Z,42.42
2023-04-22T20:35:38.956Z,42.20
2023-04-22T20:38:06.729Z,42.70
2023-04-22T20:40:34.802Z,42.50
2023-04-22T20:43:02.312Z,42.90
2023-04-22T20:45:29.186Z,42.98
2023-04-22T20:47:58.465Z,42.66
2023-04-22T20:50:25.817Z,42.87
2023-04-22T20:52:53.400Z,42.97
2023-04-22T20:55:20.253Z,43.14
2023-04-22T20:57:47.177Z,43.01
2023-04-22T21:00:14.724Z,43.21
2023-04-22T21:02:42.328Z,43.15
2023-04-22T21:05:11.380Z,43.31
2023-04-22T21:07:39.818Z,43.58
2023-04-22T21:10:07.623Z,43.58
2023-04-22T21:12:34.709Z,43.34
2023-04-22T21:15:01.813Z,43.83
2023-04-22T21:17:32.227Z,43.52
2023-04-22T21:19:59.284Z,43.73
2023-04-22T21:22:26.945Z,43.91
2023-04-22T21:24:54.042Z,43.92
2023-04-22T21:27:22.365Z,43.65
2023-04-22T21:29:50.187Z,43.80
2023-04-22T21:32:17.826Z,43.80
2023-04-22T21:34:45.252Z,44.13
2023-04-22T21:37:12.809Z,44.18
2023-04-22T21:39:40.181Z,44.21
2023-04-22T21:42:08.902Z,44.17
2023-04-22T21:44:37.123Z,44.56
2023-04-22T21:47:04.741Z,44.33
2023-04-22T21:49:31.820Z,44.86
2023-04-22T21:51:59.117Z,44.65
2023-04-22T21:54:25.926Z,44.75
2023-04-22T21:56:52.772Z,44.94
2023-04-22T21:59:19.675Z,45.04
2023-04-22T22:01:46.577Z,45.04
2023-04-22T22:04:16.031Z,44.82
2023-04-22T22:06:44.794Z,45.14
2023-04-22T22:09:12.321Z,45.23
2023-04-22T22:11:39.098Z,45.24
2023-04-22T22:14:05.923Z,45.40
2023-04-22T22:16:33.632Z,45.12
2023-04-22T22:19:04.679Z,45.08
2023-04-22T22:21:33.302Z,45.23
2023-04-22T22:24:00.177Z,45.64
2023-04-22T22:26:28.071Z,45.56
2023-04-22T22:28:55.134Z,45.83
2023-04-22T22:31:21.937Z,45.99
2023-04-22T22:33:48.836Z,45.72
2023-04-22T22:36:16.288Z,46.15
2023-04-22T22:38:43.158Z,45.78
2023-04-22T22:41:09.956Z,46.06
2023-04-22T22:43:37.058Z,45.79
2023-04-22T22:46:03.895Z,45.80
2023-04-22T22:48:30.817Z,45.94
2023-04-22T22:50:57.629Z,45.97
2023-04-22T22:53:24.458Z,45.49
2023-04-22T22:55:51.319Z,45.64
2023-04-22T22:58:18.125Z,46.15
2023-04-22T23:00:44.892Z,45.77
2023-04-22T23:03:11.869Z,45.91
2023-04-22T23:05:38.746Z,46.15
2023-04-22T23:08:05.966Z,46.39
2023-04-22T23:10:32.847Z,46.37
2023-04-22T23:12:59.607Z,46.49
2023-04-22T23:15:26.406Z,46.52
2023-04-22T23:17:53.293Z,46.26
2023-04-22T23:20:20.696Z,46.66
2023-04-22T23:22:49.837Z,46.46
2023-04-22T23:25:17.016Z,46.51
2023-04-22T23:27:44.357Z,46.87
2023-04-22T23:30:11.794Z,47.28
2023-04-22T23:32:40.085Z,47.09
2023-04-22T23:35:08.623Z,47.26
2023-04-22T23:37:37.833Z,47.16
2023-04-22T23:40:05.123Z,47.38
2023-04-22T23:42:31.885Z,47.48
2023-04-22T23:44:58.645Z,47.55
2023-04-22T23:47:25.932Z,47.51
2023-04-22T23:49:55.251Z,47.86
2023-04-22T23:52:22.066Z,47.48
2023-04-22T23:54:50.215Z,47.84
2023-04-22T23:57:17.225Z,47.91
2023-04-22T23:59:44.784Z,47.87
